Time;durP1;ratioP1;P1;durP2;ratioP2;P2;SDS_P1;SDS_P2;PMS_P1;PMS_P2;Temp;Humidity;BMP_temperature;BMP_pressure;BME280_temperature;BME280_humidity;BME280_pressure;Samples;Min_cycle;Max_cycle;Signal;HPM_P1;HPM_P2
2021/08/17 00:00:44;;;;;;;4.13;3.22;;;25.90;47.00;;;;;;4214832;28;20044;-66
2021/08/17 00:02:46;;;;;;;3.38;2.83;;;26.00;47.00;;;;;;4212027;28;20080;-67
2021/08/17 00:04:48;;;;;;;3.85;2.83;;;26.00;47.00;;;;;;4213307;28;20040;-66
2021/08/17 00:06:50;;;;;;;5.28;2.83;;;26.10;46.90;;;;;;4213174;28;20044;-67
2021/08/17 00:08:52;;;;;;;5.85;3.10;;;26.20;46.80;;;;;;4213903;28;20048;-66
2021/08/17 00:10:55;;;;;;;3.15;2.85;;;26.20;46.80;;;;;;4207798;28;20057;-66
2021/08/17 00:12:57;;;;;;;3.85;2.88;;;26.20;46.80;;;;;;4205537;28;20044;-66
2021/08/17 00:14:59;;;;;;;4.20;3.00;;;26.10;46.80;;;;;;4216041;28;20054;-66
2021/08/17 00:17:01;;;;;;;4.25;3.20;;;26.10;46.90;;;;;;4211526;28;20045;-66
2021/08/17 00:19:03;;;;;;;5.03;3.40;;;26.10;47.10;;;;;;4208032;28;20049;-66
2021/08/17 00:21:05;;;;;;;4.40;3.13;;;26.00;47.20;;;;;;4200831;28;20061;-66
2021/08/17 00:23:07;;;;;;;3.88;3.47;;;26.00;47.30;;;;;;4226929;28;20044;-66
2021/08/17 00:25:10;;;;;;;5.72;3.80;;;26.00;47.40;;;;;;4216425;28;20062;-66
2021/08/17 00:27:12;;;;;;;7.00;3.28;;;26.00;47.50;;;;;;4213042;28;20082;-66
2021/08/17 00:29:14;;;;;;;5.75;3.40;;;26.00;47.60;;;;;;4227946;28;20048;-66
2021/08/17 00:31:16;;;;;;;4.70;3.45;;;26.00;47.70;;;;;;4213261;28;20048;-66
2021/08/17 00:33:18;;;;;;;4.13;3.22;;;26.00;47.80;;;;;;4211850;28;20052;-66
2021/08/17 00:35:23;;;;;;;3.45;3.15;;;26.00;47.80;;;;;;4214315;28;20452;-66
2021/08/17 00:37:25;;;;;;;4.93;3.90;;;26.00;47.80;;;;;;4214596;28;20051;-66
2021/08/17 00:39:27;;;;;;;4.88;3.28;;;26.00;47.90;;;;;;4212999;28;20044;-66
2021/08/17 00:41:30;;;;;;;3.78;3.15;;;26.00;47.90;;;;;;4211285;28;20047;-66
2021/08/17 00:43:31;;;;;;;4.22;3.05;;;26.00;47.90;;;;;;4219481;28;20052;-66
2021/08/17 00:45:34;;;;;;;4.72;3.58;;;26.00;47.90;;;;;;4213044;28;20055;-66
2021/08/17 00:47:36;;;;;;;4.97;3.08;;;25.90;48.00;;;;;;4212825;28;20150;-66
2021/08/17 00:49:38;;;;;;;4.20;3.55;;;26.00;48.10;;;;;;4210772;28;20040;-66
2021/08/17 00:51:40;;;;;;;6.60;3.65;;;25.90;48.10;;;;;;4202992;28;20049;-66
2021/08/17 00:53:43;;;;;;;4.50;3.65;;;26.00;48.20;;;;;;4212216;28;20053;-66
2021/08/17 00:55:45;;;;;;;5.38;4.03;;;26.00;48.30;;;;;;4214993;28;20070;-66
2021/08/17 00:57:47;;;;;;;4.40;3.20;;;26.00;48.30;;;;;;4228991;28;20058;-67
2021/08/17 00:59:50;;;;;;;5.68;3.42;;;25.90;48.40;;;;;;4212836;28;20056;-66
2021/08/17 01:01:52;;;;;;;7.05;4.00;;;26.00;48.40;;;;;;4214133;28;20045;-61
2021/08/17 01:03:55;;;;;;;3.88;3.30;;;26.00;48.50;;;;;;4215934;28;20049;-62
2021/08/17 01:06:00;;;;;;;4.00;3.40;;;25.90;48.60;;;;;;4215897;28;20045;-62
2021/08/17 01:08:04;;;;;;;4.43;3.72;;;26.00;48.60;;;;;;4215886;28;20048;-63
2021/08/17 01:10:08;;;;;;;3.83;3.33;;;25.90;48.70;;;;;;4215922;28;20044;-62
2021/08/17 01:12:11;;;;;;;4.00;3.50;;;25.90;48.70;;;;;;4215925;28;20049;-62
2021/08/17 01:14:21;;;;;;;4.50;3.55;;;25.90;48.80;;;;;;4215983;28;20052;-61
2021/08/17 01:16:23;;;;;;;4.45;3.78;;;25.90;48.90;;;;;;4215832;28;20048;-63
2021/08/17 01:18:25;;;;;;;5.57;4.10;;;25.90;49.00;;;;;;4215777;28;20049;-62
2021/08/17 01:20:31;;;;;;;7.10;3.45;;;25.90;49.00;;;;;;4215939;28;20075;-61
2021/08/17 01:22:33;;;;;;;5.45;3.20;;;25.90;49.00;;;;;;4215792;28;20044;-61
2021/08/17 01:24:35;;;;;;;5.32;3.55;;;25.90;49.10;;;;;;4215801;28;20050;-63
2021/08/17 01:26:37;;;;;;;5.25;3.33;;;25.90;49.10;;;;;;4215698;28;20045;-62
2021/08/17 01:28:39;;;;;;;5.20;4.07;;;25.90;49.20;;;;;;4215722;28;20040;-62
2021/08/17 01:30:42;;;;;;;4.47;3.75;;;25.90;49.30;;;;;;4215827;28;20063;-62
2021/08/17 01:32:46;;;;;;;4.43;3.25;;;25.90;49.30;;;;;;4215707;28;20048;-62
2021/08/17 01:34:48;;;;;;;4.13;3.45;;;25.90;49.30;;;;;;4215686;28;20054;-62
2021/08/17 01:36:50;;;;;;;4.78;3.67;;;25.90;49.30;;;;;;4215567;28;20052;-61
2021/08/17 01:38:52;;;;;;;6.07;3.60;;;26.00;49.20;;;;;;4212574;28;20048;-67
2021/08/17 01:40:55;;;;;;;4.47;4.03;;;26.10;49.20;;;;;;4212549;28;20051;-66
2021/08/17 01:42:57;;;;;;;8.55;4.05;;;25.90;49.20;;;;;;4209955;28;20049;-65
2021/08/17 01:44:59;;;;;;;7.57;3.60;;;25.90;49.40;;;;;;4212452;28;20052;-66
2021/08/17 01:47:01;;;;;;;6.65;3.58;;;25.90;49.50;;;;;;4216420;28;20100;-66
2021/08/17 01:49:03;;;;;;;4.60;3.80;;;25.90;49.60;;;;;;4212297;28;20044;-66
2021/08/17 01:51:06;;;;;;;5.63;3.90;;;25.90;49.60;;;;;;4207587;28;20045;-66
2021/08/17 01:53:08;;;;;;;9.15;3.92;;;25.90;49.70;;;;;;4210414;28;20108;-66
2021/08/17 01:55:10;;;;;;;5.82;3.70;;;25.90;49.70;;;;;;4216580;28;20050;-66
2021/08/17 01:57:12;;;;;;;5.03;3.65;;;25.90;49.70;;;;;;4217813;28;20052;-66
2021/08/17 01:59:16;;;;;;;4.95;3.83;;;25.90;49.70;;;;;;4215581;28;20045;-66
2021/08/17 02:01:18;;;;;;;5.90;3.50;;;25.90;49.70;;;;;;4215302;28;20040;-66
2021/08/17 02:03:20;;;;;;;4.28;3.45;;;25.90;49.70;;;;;;4215531;28;20041;-66
2021/08/17 02:05:24;;;;;;;8.20;3.38;;;25.90;49.70;;;;;;4217204;28;20095;-66
2021/08/17 02:07:26;;;;;;;6.07;3.70;;;25.90;49.70;;;;;;4214127;28;20048;-66
2021/08/17 02:09:28;;;;;;;5.65;4.20;;;25.90;49.80;;;;;;4214073;28;20044;-66
2021/08/17 02:11:30;;;;;;;4.05;3.53;;;25.90;49.70;;;;;;4231128;28;20048;-66
2021/08/17 02:13:33;;;;;;;6.15;3.83;;;25.90;49.70;;;;;;4215625;28;20098;-66
2021/08/17 02:15:35;;;;;;;6.10;3.50;;;25.90;49.70;;;;;;4215207;28;20091;-66
2021/08/17 02:17:37;;;;;;;6.15;3.55;;;25.90;49.70;;;;;;4214866;28;20040;-66
2021/08/17 02:19:39;;;;;;;5.60;4.00;;;25.90;49.70;;;;;;4216853;28;20045;-66
2021/08/17 02:21:41;;;;;;;9.85;4.00;;;25.90;49.80;;;;;;4214714;28;20053;-66
2021/08/17 02:23:43;;;;;;;5.45;3.65;;;25.90;49.80;;;;;;4213577;28;20071;-66
2021/08/17 02:25:45;;;;;;;7.47;4.13;;;25.90;49.90;;;;;;4218543;28;20080;-66
2021/08/17 02:27:47;;;;;;;5.90;3.97;;;25.90;49.90;;;;;;4215263;28;20124;-66
2021/08/17 02:29:49;;;;;;;7.45;3.88;;;25.90;50.00;;;;;;4213504;28;20057;-65
2021/08/17 02:31:51;;;;;;;5.35;3.90;;;25.90;50.00;;;;;;4216494;28;20051;-66
2021/08/17 02:33:53;;;;;;;5.10;3.35;;;25.90;50.10;;;;;;4216758;28;20055;-66
2021/08/17 02:35:55;;;;;;;6.50;3.97;;;25.90;50.10;;;;;;4215338;28;20056;-67
2021/08/17 02:37:57;;;;;;;6.25;4.50;;;25.80;50.10;;;;;;4221310;28;20074;-67
2021/08/17 02:40:00;;;;;;;5.38;4.28;;;25.80;50.20;;;;;;4217748;28;20044;-59
2021/08/17 02:42:02;;;;;;;5.88;4.43;;;25.90;50.20;;;;;;4217811;28;20396;-59
2021/08/17 02:44:05;;;;;;;6.07;4.20;;;25.80;50.30;;;;;;4217704;28;20049;-59
2021/08/17 02:46:07;;;;;;;4.80;4.13;;;25.80;50.40;;;;;;4217776;28;20098;-60
2021/08/17 02:48:09;;;;;;;6.65;4.00;;;25.80;50.40;;;;;;4217795;28;20048;-59
2021/08/17 02:50:11;;;;;;;6.05;4.15;;;25.80;50.40;;;;;;4217752;28;20075;-59
2021/08/17 02:52:13;;;;;;;5.15;4.13;;;25.80;50.40;;;;;;4217691;28;20049;-59
2021/08/17 02:54:15;;;;;;;8.55;4.47;;;25.90;50.30;;;;;;4217665;28;20112;-59
2021/08/17 02:56:17;;;;;;;4.93;3.72;;;25.80;50.40;;;;;;4217667;28;20078;-59
2021/08/17 02:58:19;;;;;;;6.00;4.50;;;25.80;50.40;;;;;;4208861;28;20041;-59
2021/08/17 03:00:21;;;;;;;7.13;4.40;;;25.80;50.40;;;;;;4200739;28;20060;-59
2021/08/17 03:02:24;;;;;;;11.52;4.82;;;25.80;50.40;;;;;;4200893;28;20052;-59
2021/08/17 03:04:26;;;;;;;7.25;4.25;;;25.80;50.40;;;;;;4200768;28;20056;-59
2021/08/17 03:06:28;;;;;;;5.35;3.83;;;25.80;50.40;;;;;;4200828;28;20067;-60
2021/08/17 03:08:30;;;;;;;5.45;4.45;;;25.80;50.50;;;;;;4205670;28;20048;-59
2021/08/17 03:10:37;;;;;;;12.40;4.90;;;25.70;50.50;;;;;;4217341;28;20083;-59
2021/08/17 03:12:39;;;;;;;10.23;4.53;;;25.80;50.50;;;;;;4217391;28;20048;-59
2021/08/17 03:14:41;;;;;;;5.70;4.38;;;25.70;50.50;;;;;;4217438;28;20076;-59
2021/08/17 03:16:43;;;;;;;8.35;4.80;;;25.70;50.40;;;;;;4217300;28;20049;-59
2021/08/17 03:18:45;;;;;;;12.65;4.88;;;25.70;50.40;;;;;;4217171;28;20059;-59
2021/08/17 03:20:48;;;;;;;9.65;4.60;;;25.70;50.40;;;;;;4217246;28;20112;-59
2021/08/17 03:22:50;;;;;;;6.32;4.28;;;25.70;50.40;;;;;;4217151;28;20044;-59
2021/08/17 03:24:53;;;;;;;10.07;4.45;;;25.70;50.40;;;;;;4217208;28;20079;-60
2021/08/17 03:26:55;;;;;;;13.60;5.15;;;25.70;50.50;;;;;;4217184;28;20371;-60
2021/08/17 03:28:57;;;;;;;12.00;4.55;;;25.80;50.50;;;;;;4216772;28;20059;-59
2021/08/17 03:30:59;;;;;;;11.10;4.85;;;25.70;50.50;;;;;;4216950;28;20048;-59
2021/08/17 03:33:01;;;;;;;10.70;4.45;;;25.70;50.50;;;;;;4216992;28;20048;-58
2021/08/17 03:35:04;;;;;;;9.20;5.00;;;25.70;50.50;;;;;;4216917;28;20048;-59
2021/08/17 03:37:06;;;;;;;10.27;4.53;;;25.70;50.40;;;;;;4217017;28;20052;-59
2021/08/17 03:39:09;;;;;;;6.35;4.10;;;25.70;50.40;;;;;;4215774;28;20044;-63
2021/08/17 03:41:11;;;;;;;7.05;4.35;;;25.70;50.40;;;;;;4213818;28;20048;-63
2021/08/17 03:43:13;;;;;;;9.75;4.82;;;25.70;50.40;;;;;;4199794;28;20067;-64
2021/08/17 03:45:17;;;;;;;9.32;4.63;;;25.70;50.40;;;;;;4181328;28;20045;-62
2021/08/17 03:47:19;;;;;;;13.98;4.78;;;25.70;50.40;;;;;;4198706;28;20051;-62
2021/08/17 03:49:21;;;;;;;11.77;5.50;;;25.70;50.40;;;;;;4210718;28;20083;-62
2021/08/17 03:51:23;;;;;;;9.57;4.75;;;25.70;50.40;;;;;;4215364;28;20058;-63
2021/08/17 03:53:26;;;;;;;8.40;4.97;;;25.70;50.50;;;;;;4201069;28;20060;-63
2021/08/17 03:55:28;;;;;;;13.32;4.57;;;25.70;50.30;;;;;;4213810;28;20048;-64
2021/08/17 03:57:30;;;;;;;8.60;4.65;;;25.70;50.40;;;;;;4213447;28;20131;-64
2021/08/17 03:59:32;;;;;;;15.23;4.93;;;25.70;50.30;;;;;;4211607;28;20052;-63
2021/08/17 04:01:34;;;;;;;10.65;5.55;;;25.70;50.30;;;;;;4215044;28;20044;-63
2021/08/17 04:03:37;;;;;;;10.93;5.85;;;25.70;50.30;;;;;;4202897;28;20064;-63
2021/08/17 04:05:40;;;;;;;8.43;4.88;;;25.70;50.40;;;;;;4201525;28;20041;-63
2021/08/17 04:07:42;;;;;;;10.25;5.82;;;25.70;50.40;;;;;;4200542;28;20052;-63
2021/08/17 04:09:44;;;;;;;10.55;5.18;;;25.70;50.40;;;;;;4212747;28;20055;-63
2021/08/17 04:11:46;;;;;;;11.75;5.50;;;25.70;50.40;;;;;;4205348;28;20053;-63
2021/08/17 04:13:48;;;;;;;8.52;5.15;;;25.70;50.40;;;;;;4198463;28;20045;-62
2021/08/17 04:15:50;;;;;;;13.85;5.97;;;25.70;50.50;;;;;;4199564;28;20047;-57
2021/08/17 04:17:52;;;;;;;7.72;4.82;;;25.80;50.70;;;;;;4199448;28;20060;-58
2021/08/17 04:19:55;;;;;;;10.25;5.07;;;25.70;50.60;;;;;;4199758;28;20044;-56
2021/08/17 04:21:57;;;;;;;11.77;5.47;;;25.70;50.60;;;;;;4199593;28;20047;-55
2021/08/17 04:24:00;;;;;;;7.10;4.88;;;25.70;50.70;;;;;;4199718;28;20045;-57
2021/08/17 04:26:02;;;;;;;11.32;5.10;;;25.70;50.80;;;;;;4199582;28;20055;-57
2021/08/17 04:28:05;;;;;;;9.70;5.05;;;25.70;50.80;;;;;;4199628;28;20048;-56
2021/08/17 04:30:07;;;;;;;8.30;5.25;;;25.70;50.90;;;;;;4199566;28;20053;-57
2021/08/17 04:32:10;;;;;;;11.25;5.57;;;25.70;50.90;;;;;;4199641;28;20045;-56
2021/08/17 04:34:12;;;;;;;8.27;5.13;;;25.70;51.00;;;;;;4199564;28;20049;-56
2021/08/17 04:36:14;;;;;;;7.82;5.20;;;25.70;51.00;;;;;;4199517;28;20063;-56
2021/08/17 04:38:16;;;;;;;13.13;5.25;;;25.70;51.00;;;;;;4199552;28;20055;-54
2021/08/17 04:40:18;;;;;;;12.88;5.45;;;25.80;51.10;;;;;;4199410;28;20040;-57
2021/08/17 04:42:20;;;;;;;7.97;5.28;;;25.70;51.10;;;;;;4201179;28;20075;-59
2021/08/17 04:44:23;;;;;;;8.07;5.43;;;25.70;51.20;;;;;;4230072;28;20044;-59
2021/08/17 04:46:25;;;;;;;9.40;4.90;;;25.70;51.20;;;;;;4220645;28;20038;-56
2021/08/17 04:48:27;;;;;;;10.85;5.65;;;25.80;51.20;;;;;;4232794;28;20083;-56
2021/08/17 04:50:29;;;;;;;9.18;5.13;;;25.70;51.30;;;;;;4232777;28;20104;-57
2021/08/17 04:52:31;;;;;;;13.90;5.50;;;25.80;51.40;;;;;;4232658;28;20044;-56
2021/08/17 04:54:33;;;;;;;11.07;5.25;;;25.80;51.50;;;;;;4232845;28;20044;-56
2021/08/17 04:56:35;;;;;;;14.80;5.55;;;25.80;51.50;;;;;;4222093;28;20044;-59
2021/08/17 04:58:37;;;;;;;8.60;5.25;;;25.80;51.60;;;;;;4199248;28;20049;-59
2021/08/17 05:00:44;;;;;;;7.72;5.15;;;25.80;51.70;;;;;;4205141;28;20063;-52
2021/08/17 05:02:47;;;;;;;8.98;5.50;;;25.80;51.80;;;;;;4215942;28;20049;-54
2021/08/17 05:04:49;;;;;;;10.82;4.57;;;25.80;51.90;;;;;;4215910;28;20488;-55
2021/08/17 05:06:51;;;;;;;8.25;5.22;;;25.80;52.00;;;;;;4215871;28;20045;-53
2021/08/17 05:08:53;;;;;;;7.20;4.93;;;25.70;52.00;;;;;;4215903;28;20107;-53
2021/08/17 05:10:55;;;;;;;7.10;4.82;;;25.80;52.00;;;;;;4215898;28;20044;-54
2021/08/17 05:13:00;;;;;;;5.47;4.95;;;25.80;52.10;;;;;;4215937;28;20111;-53
2021/08/17 05:15:04;;;;;;;12.43;5.47;;;25.80;52.20;;;;;;4215914;28;20054;-54
2021/08/17 05:17:16;;;;;;;6.00;4.30;;;25.80;52.20;;;;;;4215849;28;20054;-52
2021/08/17 05:19:18;;;;;;;8.65;4.95;;;25.80;52.30;;;;;;4215782;28;20051;-53
2021/08/17 05:21:22;;;;;;;6.68;4.63;;;25.80;52.40;;;;;;4215775;28;20100;-52
2021/08/17 05:23:24;;;;;;;7.78;4.25;;;25.80;52.40;;;;;;4215748;28;20044;-52
2021/08/17 05:25:26;;;;;;;5.13;4.35;;;25.80;52.50;;;;;;4215802;28;20044;-53
2021/08/17 05:27:28;;;;;;;8.77;4.45;;;25.80;52.50;;;;;;4215774;28;20071;-53
2021/08/17 05:29:30;;;;;;;9.80;5.50;;;25.80;52.60;;;;;;4218051;28;20049;-52
2021/08/17 05:31:32;;;;;;;8.23;4.38;;;25.80;52.60;;;;;;4219013;28;20063;-53
2021/08/17 05:33:34;;;;;;;8.05;4.80;;;25.80;52.60;;;;;;4218981;28;20091;-52
2021/08/17 05:35:36;;;;;;;6.55;4.32;;;25.80;52.60;;;;;;4218871;28;20071;-49
2021/08/17 05:37:38;;;;;;;9.57;4.65;;;25.80;52.70;;;;;;4218878;28;20055;-49
2021/08/17 05:39:42;;;;;;;6.07;4.60;;;25.80;52.70;;;;;;4218793;28;20063;-51
2021/08/17 05:41:44;;;;;;;5.07;4.28;;;25.80;52.80;;;;;;4218922;28;20053;-49
2021/08/17 05:43:46;;;;;;;10.95;4.75;;;25.80;52.90;;;;;;4218765;28;20051;-53
2021/08/17 05:45:48;;;;;;;7.28;4.90;;;25.80;52.90;;;;;;4218677;28;20045;-56
2021/08/17 05:47:50;;;;;;;13.00;4.97;;;25.90;52.80;;;;;;4218335;28;20048;-48
2021/08/17 05:49:53;;;;;;;14.15;5.15;;;25.80;53.30;;;;;;4217774;28;20048;-58
2021/08/17 05:51:55;;;;;;;13.38;5.20;;;25.80;53.70;;;;;;4207938;28;20047;-59
2021/08/17 05:53:57;;;;;;;15.45;6.00;;;25.80;53.40;;;;;;4216973;28;20048;-58
2021/08/17 05:55:59;;;;;;;12.80;5.22;;;25.80;53.00;;;;;;4209062;28;20067;-56
2021/08/17 05:58:04;;;;;;;9.18;4.60;;;25.90;53.10;;;;;;4217249;28;20048;-57
2021/08/17 06:00:13;;;;;;;13.85;5.72;;;25.90;53.30;;;;;;4215287;28;20053;-53
2021/08/17 06:02:15;;;;;;;12.07;5.55;;;25.90;53.30;;;;;;4207937;28;20397;-54
2021/08/17 06:04:18;;;;;;;14.05;5.43;;;25.90;53.20;;;;;;4204795;28;20080;-52
2021/08/17 06:06:20;;;;;;;11.25;5.75;;;25.90;53.40;;;;;;4216852;28;20119;-53
2021/08/17 06:08:22;;;;;;;9.15;4.40;;;25.90;53.50;;;;;;4202272;28;20041;-54
2021/08/17 06:10:24;;;;;;;12.90;6.13;;;25.90;53.40;;;;;;4210757;28;20074;-49
2021/08/17 06:12:26;;;;;;;6.90;4.85;;;25.90;53.30;;;;;;4216784;28;20079;-51
2021/08/17 06:14:28;;;;;;;5.95;4.80;;;25.90;53.40;;;;;;4215638;28;20049;-57
2021/08/17 06:16:30;;;;;;;8.48;5.00;;;25.90;53.50;;;;;;4205805;28;20053;-59
2021/08/17 06:18:32;;;;;;;13.48;5.55;;;25.90;53.50;;;;;;4202382;28;20056;-58
2021/08/17 06:20:35;;;;;;;9.63;4.95;;;25.90;53.60;;;;;;4200354;28;20059;-58
2021/08/17 06:22:37;;;;;;;12.80;6.68;;;25.90;53.50;;;;;;4202062;28;20063;-59
2021/08/17 06:24:39;;;;;;;10.48;4.70;;;25.90;53.40;;;;;;4202163;28;20045;-59
2021/08/17 06:26:41;;;;;;;8.48;5.07;;;25.90;53.50;;;;;;4201100;28;20051;-59
2021/08/17 06:28:44;;;;;;;10.50;4.75;;;25.90;53.50;;;;;;4214835;28;20055;-60
2021/08/17 06:30:46;;;;;;;7.63;4.55;;;25.90;53.50;;;;;;4212191;28;20125;-55
2021/08/17 06:32:48;;;;;;;7.10;4.60;;;25.90;53.50;;;;;;4217928;28;20052;-52
2021/08/17 06:34:50;;;;;;;10.18;4.88;;;25.90;53.70;;;;;;4218053;28;20048;-57
2021/08/17 06:36:52;;;;;;;9.65;4.28;;;25.90;54.00;;;;;;4218058;28;20108;-58
2021/08/17 06:38:55;;;;;;;17.67;5.18;;;26.00;53.50;;;;;;4217693;28;20104;-58
2021/08/17 06:40:56;;;;;;;12.05;4.43;;;25.90;53.90;;;;;;4217616;28;20036;-50
2021/08/17 06:42:58;;;;;;;10.35;4.85;;;25.90;53.50;;;;;;4217699;28;20045;-47
2021/08/17 06:45:01;;;;;;;8.65;4.65;;;25.90;53.70;;;;;;4217153;28;20071;-58
2021/08/17 06:47:04;;;;;;;9.27;4.95;;;25.90;53.70;;;;;;4210149;28;20072;-60
2021/08/17 06:49:06;;;;;;;10.75;4.28;;;25.90;53.40;;;;;;4205847;28;20052;-50
2021/08/17 06:51:08;;;;;;;10.43;4.40;;;25.90;53.50;;;;;;4216947;28;20052;-53
2021/08/17 06:53:10;;;;;;;10.23;5.07;;;26.00;53.50;;;;;;4213012;28;20048;-51
2021/08/17 06:55:13;;;;;;;10.95;4.80;;;26.00;53.20;;;;;;4215753;28;20062;-50
2021/08/17 06:57:15;;;;;;;6.43;3.85;;;26.00;53.00;;;;;;4200436;28;20102;-51
2021/08/17 06:59:18;;;;;;;6.45;4.28;;;26.00;53.00;;;;;;4215638;28;20060;-54
2021/08/17 07:01:20;;;;;;;9.45;4.40;;;26.00;53.30;;;;;;4212773;28;20080;-52
2021/08/17 07:03:23;;;;;;;8.45;3.67;;;26.00;53.20;;;;;;4215322;28;20048;-54
2021/08/17 07:05:25;;;;;;;10.30;4.80;;;26.00;53.30;;;;;;4199994;28;20108;-55
2021/08/17 07:07:27;;;;;;;4.90;3.88;;;26.00;53.30;;;;;;4203875;28;20045;-52
2021/08/17 07:09:29;;;;;;;12.40;4.93;;;26.00;53.20;;;;;;4206537;28;20076;-48
2021/08/17 07:11:31;;;;;;;8.20;4.53;;;26.00;53.20;;;;;;4216904;28;20052;-50
2021/08/17 07:15:54;;;;;;;8.25;4.13;;;26.10;52.80;;;;;;4311369;22;20401;-67
2021/08/17 07:17:57;;;;;;;7.07;4.05;;;26.10;52.30;;;;;;4164845;28;20085;-70
2021/08/17 07:19:59;;;;;;;6.32;4.25;;;26.10;52.30;;;;;;4165090;28;20444;-71
2021/08/17 07:22:01;;;;;;;10.23;4.10;;;26.10;52.60;;;;;;4165024;28;20107;-68
2021/08/17 07:24:04;;;;;;;10.60;4.20;;;26.10;52.10;;;;;;4164891;28;20049;-67
2021/08/17 07:26:07;;;;;;;5.75;3.85;;;26.10;52.60;;;;;;4165081;28;20597;-67
2021/08/17 07:28:12;;;;;;;6.57;4.55;;;26.20;52.20;;;;;;4164911;28;20049;-66
2021/08/17 07:30:15;;;;;;;13.93;4.35;;;26.10;51.90;;;;;;4164546;28;20377;-67
2021/08/17 07:32:17;;;;;;;11.32;4.07;;;26.10;52.90;;;;;;4164922;28;20045;-67
2021/08/17 07:34:19;;;;;;;8.18;2.88;;;26.20;52.90;;;;;;4164856;28;20060;-68
2021/08/17 07:36:22;;;;;;;2.47;2.10;;;26.20;52.60;;;;;;4164510;28;20046;-65
2021/08/17 07:38:24;;;;;;;4.35;2.10;;;26.20;52.70;;;;;;4164068;28;20125;-64
2021/08/17 07:40:26;;;;;;;9.90;2.45;;;26.10;52.60;;;;;;4164815;28;20061;-67
2021/08/17 07:42:28;;;;;;;5.53;2.47;;;26.10;52.70;;;;;;4164293;28;20049;-66
2021/08/17 07:44:30;;;;;;;6.35;1.83;;;26.20;52.70;;;;;;4164445;28;20050;-72
2021/08/17 07:46:32;;;;;;;3.72;1.63;;;26.20;52.80;;;;;;4164109;28;20562;-66
2021/08/17 07:48:34;;;;;;;6.75;1.60;;;26.20;52.80;;;;;;4164246;28;20045;-66
2021/08/17 07:50:38;;;;;;;3.03;1.80;;;26.20;52.70;;;;;;4164347;28;20045;-67
2021/08/17 07:52:42;;;;;;;2.47;1.50;;;26.20;52.80;;;;;;4163729;28;20041;-68
2021/08/17 07:54:44;;;;;;;1.80;1.20;;;26.20;52.70;;;;;;4163850;28;20053;-67
2021/08/17 07:56:49;;;;;;;1.20;1.10;;;26.20;52.90;;;;;;4164440;28;20052;-69
2021/08/17 07:58:51;;;;;;;5.93;1.50;;;26.20;52.90;;;;;;4164013;28;20374;-68
2021/08/17 08:00:53;;;;;;;2.33;1.80;;;26.20;52.80;;;;;;4164635;28;20049;-69
2021/08/17 08:02:55;;;;;;;3.40;1.92;;;26.20;52.70;;;;;;4163626;28;20401;-66
2021/08/17 08:04:59;;;;;;;6.73;2.20;;;26.20;52.70;;;;;;4164542;28;20049;-63
2021/08/17 08:07:01;;;;;;;4.93;1.33;;;26.20;52.50;;;;;;4164268;28;20048;-72
2021/08/17 08:09:04;;;;;;;8.70;2.60;;;26.20;52.50;;;;;;4164398;28;20392;-70
2021/08/17 08:11:07;;;;;;;6.38;3.25;;;26.20;51.60;;;;;;4165587;28;20095;-74
2021/08/17 08:13:09;;;;;;;10.95;3.35;;;26.20;51.00;;;;;;4164594;28;20056;-69
2021/08/17 08:15:12;;;;;;;7.65;3.45;;;26.30;51.30;;;;;;4155536;28;20080;-69
2021/08/17 08:17:14;;;;;;;11.68;3.72;;;26.30;51.50;;;;;;4147510;28;20057;-69
2021/08/17 08:19:16;;;;;;;7.57;3.53;;;26.30;51.80;;;;;;4146876;28;20128;-74
2021/08/17 08:21:19;;;;;;;5.75;3.05;;;26.20;51.30;;;;;;4147563;28;20050;-74
2021/08/17 08:23:21;;;;;;;17.55;3.42;;;26.20;51.10;;;;;;4147491;28;20137;-75
2021/08/17 08:25:23;;;;;;;6.78;3.50;;;26.30;51.70;;;;;;4147688;28;20056;-75
2021/08/17 08:27:25;;;;;;;7.95;3.45;;;26.20;51.20;;;;;;4147905;28;20408;-74
2021/08/17 08:29:27;;;;;;;7.82;3.50;;;26.20;51.30;;;;;;4147605;28;20046;-73
2021/08/17 08:31:30;;;;;;;8.05;3.40;;;26.20;51.20;;;;;;4147945;28;20477;-73
2021/08/17 08:33:32;;;;;;;8.88;3.65;;;26.20;51.30;;;;;;4147513;28;20504;-73
2021/08/17 08:35:34;;;;;;;7.88;3.45;;;26.20;51.30;;;;;;4147302;28;20050;-73
2021/08/17 08:37:37;;;;;;;7.53;3.35;;;26.20;51.00;;;;;;4147436;28;20409;-72
2021/08/17 08:39:39;;;;;;;12.43;3.70;;;26.20;51.40;;;;;;4147013;28;20065;-73
2021/08/17 08:41:46;;;;;;;4.93;3.33;;;26.20;51.70;;;;;;4147519;28;20127;-72
2021/08/17 08:43:49;;;;;;;7.57;3.30;;;26.20;51.40;;;;;;4146992;28;20053;-73
2021/08/17 08:45:51;;;;;;;8.60;3.75;;;26.10;51.40;;;;;;4147192;28;20465;-73
2021/08/17 08:47:54;;;;;;;7.80;3.17;;;26.20;51.30;;;;;;4146957;28;20057;-66
2021/08/17 08:49:58;;;;;;;4.22;3.47;;;26.20;51.10;;;;;;4147268;28;20493;-69
2021/08/17 08:52:01;;;;;;;8.52;3.25;;;26.20;51.00;;;;;;4146912;28;20382;-70
2021/08/17 08:54:04;;;;;;;6.45;3.67;;;26.20;50.90;;;;;;4146912;28;20057;-71
2021/08/17 08:56:07;;;;;;;10.93;3.90;;;26.20;51.10;;;;;;4147006;28;20481;-66
2021/08/17 08:58:09;;;;;;;10.32;3.30;;;26.30;50.80;;;;;;4145853;28;20070;-72
2021/08/17 09:00:12;;;;;;;8.60;3.72;;;26.20;50.80;;;;;;4144792;28;20496;-67
2021/08/17 09:02:18;;;;;;;5.38;3.83;;;26.20;50.90;;;;;;4146505;28;20077;-68
2021/08/17 09:04:25;;;;;;;11.13;3.80;;;26.30;50.90;;;;;;4150583;28;20049;-70
2021/08/17 09:06:30;;;;;;;9.40;4.50;;;26.30;50.90;;;;;;4151336;28;20108;-70
2021/08/17 09:08:32;;;;;;;12.30;3.83;;;26.30;51.10;;;;;;4150888;28;20397;-71
2021/08/17 09:10:34;;;;;;;5.43;3.88;;;26.30;51.10;;;;;;4151526;28;20063;-69
2021/08/17 09:12:43;;;;;;;9.75;3.47;;;26.30;51.20;;;;;;4150852;28;20058;-67
2021/08/17 09:14:45;;;;;;;6.13;3.60;;;26.40;51.20;;;;;;4150542;28;20057;-69
2021/08/17 09:16:59;;;;;;;5.85;3.53;;;26.30;51.20;;;;;;4150949;28;20084;-68
2021/08/17 09:19:20;;;;;;;4.85;3.30;;;26.40;51.20;;;;;;4151393;28;20057;-70
2021/08/17 09:21:40;;;;;;;8.20;3.40;;;26.40;51.20;;;;;;4150173;28;20053;-71
2021/08/17 09:23:42;;;;;;;8.05;3.33;;;26.40;51.10;;;;;;4150381;28;20061;-69
2021/08/17 09:25:45;;;;;;;5.78;3.05;;;26.40;51.20;;;;;;4151054;28;20476;-71
2021/08/17 09:27:47;;;;;;;7.97;3.58;;;26.40;51.20;;;;;;4150160;28;20042;-69
2021/08/17 09:29:59;;;;;;;7.18;3.60;;;26.40;51.30;;;;;;4150719;28;20385;-69
2021/08/17 09:32:14;;;;;;;6.78;3.67;;;26.40;51.20;;;;;;4150931;28;20057;-67
2021/08/17 09:34:16;;;;;;;;;;;26.40;51.30;;;;;;4151465;28;20061;-68
2021/08/17 09:36:20;;;;;;;12.68;3.58;;;26.40;51.20;;;;;;4151486;28;19931;-68
2021/08/17 09:38:29;;;;;;;10.43;3.60;;;26.40;50.80;;;;;;4151793;28;20407;-71
2021/08/17 09:40:35;;;;;;;15.57;3.85;;;26.40;50.60;;;;;;4150890;28;20077;-66
2021/08/17 09:42:37;;;;;;;8.27;3.65;;;26.40;50.40;;;;;;4150492;28;20065;-71
2021/08/17 09:44:39;;;;;;;4.88;3.40;;;26.50;49.70;;;;;;4150844;28;20046;-69
2021/08/17 09:46:41;;;;;;;5.43;3.38;;;26.50;50.10;;;;;;4150456;28;20054;-69
2021/08/17 09:48:44;;;;;;;10.07;3.30;;;26.40;50.00;;;;;;4150398;28;20130;-69
2021/08/17 09:50:46;;;;;;;7.93;3.67;;;26.40;49.80;;;;;;4150912;28;20057;-66
2021/08/17 09:52:49;;;;;;;9.35;3.80;;;26.40;49.80;;;;;;4151331;28;20053;-68
2021/08/17 09:54:52;;;;;;;10.52;3.70;;;26.40;48.90;;;;;;4152648;28;20053;-69
2021/08/17 09:57:07;;;;;;;7.72;3.80;;;26.50;48.90;;;;;;4136183;28;20125;-70
2021/08/17 09:59:18;;;;;;;6.45;3.65;;;26.50;48.80;;;;;;4135340;28;20721;-69
2021/08/17 10:01:20;;;;;;;10.32;3.58;;;26.50;48.80;;;;;;4152431;28;20061;-70
2021/08/17 10:03:23;;;;;;;5.63;3.78;;;26.50;48.80;;;;;;4152527;28;20456;-71
2021/08/17 10:05:26;;;;;;;8.32;3.75;;;26.50;49.00;;;;;;4135338;28;20093;-70
2021/08/17 10:07:29;;;;;;;5.72;3.38;;;26.60;49.00;;;;;;4151072;28;20053;-71
2021/08/17 10:09:33;;;;;;;6.20;4.00;;;26.50;49.00;;;;;;4151322;28;20100;-72
2021/08/17 10:11:35;;;;;;;6.32;3.00;;;26.50;48.70;;;;;;4151376;28;20054;-71
2021/08/17 10:13:38;;;;;;;7.47;4.43;;;26.60;49.20;;;;;;4150636;28;20400;-71
2021/08/17 10:15:45;;;;;;;9.52;3.50;;;26.50;48.80;;;;;;4148218;28;20058;-72
2021/08/17 10:17:48;;;;;;;4.53;2.90;;;26.50;48.90;;;;;;4148908;28;20137;-72
2021/08/17 10:19:51;;;;;;;6.82;3.55;;;26.50;49.10;;;;;;4148262;28;20400;-71
2021/08/17 10:21:58;;;;;;;6.40;3.83;;;26.50;49.30;;;;;;4148210;28;20401;-72
2021/08/17 10:24:23;;;;;;;8.50;3.17;;;26.50;48.90;;;;;;4149073;28;20309;-71
2021/08/17 10:26:33;;;;;;;14.98;3.97;;;26.50;48.90;;;;;;4148973;28;20185;-71
2021/08/17 10:28:40;;;;;;;4.05;3.00;;;26.50;48.70;;;;;;4149003;28;20050;-72
2021/08/17 10:30:45;;;;;;;5.35;3.42;;;26.50;48.90;;;;;;4149092;28;20057;-70
2021/08/17 10:32:50;;;;;;;6.72;2.72;;;26.60;48.60;;;;;;4149039;28;20053;-71
2021/08/17 10:34:53;;;;;;;6.45;3.67;;;26.60;48.80;;;;;;4131570;28;20129;-71
2021/08/17 10:36:56;;;;;;;5.82;3.08;;;26.60;48.80;;;;;;4148831;28;20046;-70
2021/08/17 10:39:02;;;;;;;5.75;3.47;;;26.60;48.50;;;;;;4148364;28;20111;-70
2021/08/17 10:41:06;;;;;;;7.47;3.40;;;26.50;48.50;;;;;;4148573;28;20056;-69